createdAt,value
2023-04-01T00:01:14.218Z,1.50
2023-04-01T00:03:41.392Z,1.20
2023-04-01T00:06:09.879Z,1.43
2023-04-01T00:08:36.360Z,1.53
2023-04-01T00:11:02.833Z,1.17
2023-04-01T00:13:29.596Z,1.40
2023-04-01T00:15:57.575Z,1.87
2023-04-01T00:18:24.895Z,2.60
2023-04-01T00:20:52.340Z,2.10
2023-04-01T00:23:19.965Z,1.50
2023-04-01T00:25:48.201Z,1.17
2023-04-01T00:28:20.228Z,1.43
2023-04-01T00:30:48.116Z,1.17
2023-04-01T00:33:15.494Z,1.00
2023-04-01T00:35:42.222Z,1.10
2023-04-01T00:38:08.756Z,1.00
2023-04-01T00:40:40.500Z,1.17
2023-04-01T00:43:21.243Z,1.00
2023-04-01T00:45:49.635Z,1.20
2023-04-01T00:48:22.909Z,1.03
2023-04-01T00:51:08.347Z,1.43
2023-04-01T00:53:42.128Z,1.57
2023-04-01T00:56:31.680Z,1.33
2023-04-01T00:59:15.249Z,1.40
2023-04-01T01:01:42.025Z,1.40
2023-04-01T01:04:32.939Z,1.10
2023-04-01T01:08:25.595Z,1.10
2023-04-01T01:10:52.465Z,1.50
2023-04-01T01:13:40.674Z,1.27
2023-04-01T01:16:31.268Z,1.30
2023-04-01T01:20:49.234Z,1.13
2023-04-01T01:24:27.117Z,0.90
2023-04-01T01:31:16.965Z,1.10
2023-04-01T01:36:42.883Z,0.93
2023-04-01T01:39:11.169Z,1.10
2023-04-01T01:41:39.760Z,0.93
2023-04-01T01:44:09.950Z,1.10
2023-04-01T01:46:39.451Z,1.20
2023-04-01T01:49:10.661Z,1.40
2023-04-01T01:51:37.178Z,1.40
2023-04-01T01:54:03.734Z,1.47
2023-04-01T01:56:32.454Z,1.30
2023-04-01T01:59:10.235Z,1.27
2023-04-01T02:01:42.717Z,1.10
2023-04-01T02:04:11.470Z,1.40
2023-04-01T02:06:46.741Z,1.50
2023-04-01T02:09:13.600Z,1.03
2023-04-01T02:11:52.493Z,1.17
2023-04-01T02:14:28.655Z,1.10
2023-04-01T02:17:29.473Z,0.83
2023-04-01T02:20:20.918Z,0.90
2023-04-01T02:22:58.070Z,1.10
2023-04-01T02:25:35.009Z,1.10
2023-04-01T02:28:05.501Z,1.10
2023-04-01T02:30:36.226Z,1.20
2023-04-01T02:33:04.991Z,1.07
2023-04-01T02:35:34.344Z,1.10
2023-04-01T02:38:02.088Z,1.20
2023-04-01T02:40:28.579Z,0.90
2023-04-01T02:42:55.066Z,1.10
2023-04-01T02:45:21.789Z,1.20
2023-04-01T02:47:48.342Z,1.23
2023-04-01T02:50:15.791Z,1.30
2023-04-01T02:52:42.260Z,0.83
2023-04-01T02:55:09.591Z,0.93
2023-04-01T02:57:36.097Z,1.03
2023-04-01T03:00:04.102Z,1.20
2023-04-01T03:02:30.693Z,1.00
2023-04-01T03:04:57.226Z,1.00
2023-04-01T03:07:24.997Z,1.30
2023-04-01T03:09:51.484Z,1.23
2023-04-01T03:12:17.982Z,1.03
2023-04-01T03:14:44.449Z,1.40
2023-04-01T03:17:10.946Z,1.10
2023-04-01T03:19:37.430Z,1.40
2023-04-01T03:22:03.915Z,0.93
2023-04-01T03:24:30.402Z,1.03
2023-04-01T03:26:56.886Z,1.00
2023-04-01T03:29:23.395Z,0.80
2023-04-01T03:31:49.897Z,0.90
2023-04-01T03:34:16.362Z,0.80
2023-04-01T03:36:42.898Z,1.00
2023-04-01T03:39:09.380Z,1.10
2023-04-01T03:41:39.712Z,1.30
2023-04-01T03:44:06.462Z,1.03
2023-04-01T03:46:33.038Z,1.00
2023-04-01T03:48:59.509Z,0.97
2023-04-01T03:51:26.017Z,1.00
2023-04-01T03:53:52.524Z,1.00
2023-04-01T03:56:19.000Z,1.20
2023-04-01T03:58:45.614Z,1.17
2023-04-01T04:01:18.644Z,1.20
2023-04-01T04:03:46.000Z,0.80
2023-04-01T04:06:14.494Z,1.00
2023-04-01T04:08:41.135Z,0.93
2023-04-01T04:11:08.309Z,1.67
2023-04-01T04:13:36.102Z,2.30
2023-04-01T04:16:04.193Z,1.67
2023-04-01T04:18:30.763Z,1.10
2023-04-01T04:20:57.337Z,1.00
2023-04-01T04:23:24.747Z,1.17
2023-04-01T04:26:06.813Z,1.10
2023-04-01T04:28:33.802Z,1.20
2023-04-01T04:31:01.969Z,1.00
2023-04-01T04:33:28.705Z,1.33
2023-04-01T04:36:00.332Z,1.40
2023-04-01T04:38:27.735Z,1.13
2023-04-01T04:40:54.352Z,0.90
2023-04-01T04:43:21.622Z,1.00
2023-04-01T04:45:48.250Z,0.90
2023-04-01T04:48:18.721Z,1.07
2023-04-01T04:50:51.494Z,1.13
2023-04-01T04:53:19.767Z,1.10
2023-04-01T04:55:50.592Z,1.43
2023-04-01T04:58:17.759Z,1.40
2023-04-01T05:00:44.896Z,1.30
2023-04-01T05:03:12.889Z,1.00
2023-04-01T05:05:40.434Z,1.20
2023-04-01T05:08:07.347Z,1.70
2023-04-01T05:10:33.853Z,1.10
2023-04-01T05:13:00.387Z,1.10
2023-04-01T05:15:26.873Z,1.10
2023-04-01T05:17:53.377Z,1.00
2023-04-01T05:20:20.230Z,1.10
2023-04-01T05:22:46.809Z,1.80
2023-04-01T05:25:13.318Z,1.20
2023-04-01T05:27:39.868Z,1.10
2023-04-01T05:30:07.483Z,1.10
2023-04-01T05:32:34.064Z,1.10
2023-04-01T05:35:00.562Z,1.10
2023-04-01T05:37:27.050Z,1.10
2023-04-01T05:39:53.544Z,1.03
2023-04-01T05:42:20.196Z,1.10
2023-04-01T05:44:46.685Z,1.00
2023-04-01T05:47:13.187Z,1.10
2023-04-01T05:49:39.673Z,1.00
2023-04-01T05:52:06.163Z,1.27
2023-04-01T05:54:33.278Z,1.27
2023-04-01T05:56:59.901Z,1.00
2023-04-01T05:59:26.405Z,1.30
2023-04-01T06:01:53.334Z,1.40
2023-04-01T06:04:20.481Z,2.37
2023-04-01T06:06:47.024Z,2.63
2023-04-01T06:09:27.677Z,2.33
2023-04-01T06:12:57.536Z,2.47
2023-04-01T06:18:19.224Z,4.57
2023-04-01T06:24:16.306Z,2.50
2023-04-01T06:33:06.158Z,4.57
2023-04-01T06:35:59.781Z,3.50
2023-04-01T06:41:10.329Z,3.57
2023-04-01T06:47:08.410Z,2.53
2023-04-01T06:50:38.379Z,2.47
2023-04-01T06:53:22.524Z,2.40
2023-04-01T06:56:16.968Z,2.43
2023-04-01T06:59:34.984Z,2.07
2023-04-01T07:02:26.211Z,2.40
2023-04-01T07:04:57.770Z,2.13
2023-04-01T07:07:43.653Z,2.07
2023-04-01T07:11:05.686Z,1.70
2023-04-01T07:14:48.322Z,2.00
2023-04-01T07:17:57.426Z,1.20
2023-04-01T07:20:31.182Z,1.30
2023-04-01T07:23:03.702Z,0.90
2023-04-01T07:25:39.970Z,0.80
2023-04-01T07:28:13.745Z,0.60
2023-04-01T07:31:20.222Z,0.90
2023-04-01T07:34:16.188Z,0.80
2023-04-01T07:40:51.611Z,0.43
2023-04-01T07:46:38.415Z,0.37
2023-04-01T07:49:22.451Z,0.50
2023-04-01T07:52:06.739Z,0.40
2023-04-01T07:54:58.314Z,0.25
2023-04-01T07:59:10.318Z,0.30
2023-04-01T08:02:03.357Z,0.20
2023-04-01T08:07:15.685Z,0.33
2023-04-01T08:10:04.331Z,0.20
2023-04-01T08:16:01.764Z,0.40
2023-04-01T08:19:17.200Z,0.52
2023-04-01T08:21:54.893Z,0.20
2023-04-01T08:24:47.780Z,0.20
2023-04-01T08:28:29.894Z,0.27
2023-04-01T08:31:20.257Z,0.22
2023-04-01T08:33:49.283Z,0.20
2023-04-01T08:36:34.418Z,0.30
2023-04-01T08:39:19.557Z,0.30
2023-04-01T08:43:50.530Z,0.20
2023-04-01T08:51:08.627Z,0.30
2023-04-01T08:54:12.754Z,0.30
2023-04-01T08:58:45.014Z,0.20
2023-04-01T09:04:44.592Z,0.40
2023-04-01T09:09:46.950Z,0.80
2023-04-01T09:18:00.905Z,0.20
2023-04-01T09:21:36.623Z,0.13
2023-04-01T09:28:34.580Z,0.10
2023-04-01T09:31:31.940Z,0.22
2023-04-01T09:34:36.462Z,0.20
2023-04-01T09:40:05.473Z,0.32
2023-04-01T09:43:19.979Z,0.20
2023-04-01T09:46:26.573Z,0.30
2023-04-01T09:49:37.776Z,0.20
2023-04-01T09:55:41.536Z,0.50
2023-04-01T10:01:48.463Z,0.10
2023-04-01T10:07:56.899Z,0.70
2023-04-01T10:11:07.772Z,0.30
2023-04-01T10:18:48.178Z,0.37
2023-04-01T10:22:10.956Z,0.20
2023-04-01T10:25:11.125Z,0.50
2023-04-01T10:28:07.183Z,0.60
2023-04-01T10:34:09.416Z,0.87
2023-04-01T10:37:02.496Z,0.40
2023-04-01T10:40:49.134Z,0.30
2023-04-01T10:50:12.298Z,0.70
2023-04-01T10:54:45.061Z,0.10
2023-04-01T10:58:26.500Z,0.30
2023-04-01T11:05:20.921Z,0.50
2023-04-01T11:08:43.302Z,0.47
2023-04-01T11:17:26.254Z,0.60
2023-04-01T11:21:14.749Z,0.20
2023-04-01T11:25:00.872Z,0.60
2023-04-01T11:32:08.238Z,0.55
2023-04-01T11:39:23.934Z,0.20
2023-04-01T11:45:27.916Z,0.37
2023-04-01T11:49:48.747Z,0.70
2023-04-01T11:53:15.840Z,0.40
2023-04-01T12:04:12.861Z,0.25
2023-04-01T12:07:15.909Z,0.40
2023-04-01T12:10:26.497Z,0.40
2023-04-01T12:13:15.555Z,0.20
2023-04-01T12:19:07.119Z,0.20
2023-04-01T12:24:50.193Z,0.13
2023-04-01T12:31:26.522Z,0.10
2023-04-01T12:39:11.310Z,0.37
2023-04-01T12:44:39.968Z,0.20
2023-04-01T12:48:11.825Z,0.32
2023-04-01T12:53:26.838Z,0.50
2023-04-01T12:55:56.285Z,0.30
2023-04-01T13:02:06.443Z,0.10
2023-04-01T13:08:21.227Z,0.20
2023-04-01T13:14:25.047Z,0.20
2023-04-01T13:18:57.357Z,0.20
2023-04-01T13:24:31.457Z,0.37
2023-04-01T13:27:46.091Z,0.20
2023-04-01T13:30:40.499Z,0.30
2023-04-01T13:33:50.310Z,0.32
2023-04-01T13:37:40.381Z,0.20
2023-04-01T13:44:13.385Z,0.30
2023-04-01T13:47:34.029Z,0.82
2023-04-01T13:56:05.172Z,0.50
2023-04-01T14:01:58.260Z,0.20
2023-04-01T14:07:08.678Z,0.80
2023-04-01T14:10:55.471Z,0.20
2023-04-01T14:16:12.809Z,0.30
2023-04-01T14:20:03.661Z,0.65
2023-04-01T14:23:13.185Z,0.35
2023-04-01T14:28:40.004Z,0.30
2023-04-01T14:33:42.346Z,0.40
2023-04-01T14:40:22.372Z,0.45
2023-04-01T14:44:51.726Z,0.30
2023-04-01T14:50:35.562Z,0.40
2023-04-01T14:53:46.029Z,0.60
2023-04-01T14:56:12.789Z,0.62
2023-04-01T14:58:57.434Z,0.30
2023-04-01T15:03:12.851Z,0.22
2023-04-01T15:08:36.964Z,0.30
2023-04-01T15:16:15.802Z,0.50
2023-04-01T15:24:05.155Z,0.28
2023-04-01T15:28:53.169Z,0.50
2023-04-01T15:36:48.358Z,0.30
2023-04-01T15:44:30.412Z,0.40
2023-04-01T15:46:58.498Z,0.60
2023-04-01T15:50:43.080Z,0.90
2023-04-01T15:53:29.533Z,0.45
2023-04-01T15:58:05.975Z,0.60
2023-04-01T16:03:58.284Z,0.70
2023-04-01T16:07:41.218Z,0.60
2023-04-01T16:12:05.063Z,0.60
2023-04-01T16:20:08.044Z,0.70
2023-04-01T16:23:02.704Z,0.77
2023-04-01T16:25:47.658Z,0.82
2023-04-01T16:32:14.903Z,0.62
2023-04-01T16:41:01.076Z,0.55
2023-04-01T16:43:55.722Z,0.70
2023-04-01T16:47:33.406Z,0.80
2023-04-01T16:50:46.970Z,0.70
2023-04-01T16:54:28.898Z,1.00
2023-04-01T16:57:17.076Z,1.00
2023-04-01T17:00:55.242Z,0.80
2023-04-01T17:03:31.408Z,0.73
2023-04-01T17:06:40.347Z,0.80
2023-04-01T17:11:08.182Z,0.68
2023-04-01T17:15:40.437Z,0.80
2023-04-01T17:22:09.694Z,0.90
2023-04-01T17:25:31.505Z,0.87
2023-04-01T17:28:28.048Z,0.90
2023-04-01T17:34:46.417Z,0.97
2023-04-01T17:37:46.057Z,1.00
2023-04-01T17:42:02.995Z,0.93
2023-04-01T17:48:08.900Z,0.90
2023-04-01T17:53:37.205Z,1.50
2023-04-01T17:58:02.052Z,2.03
2023-04-01T18:01:43.325Z,1.40
2023-04-01T18:06:52.111Z,2.40
2023-04-01T18:12:19.870Z,5.37
2023-04-01T18:16:39.238Z,5.50
2023-04-01T18:21:46.809Z,4.67
2023-04-01T18:24:36.066Z,4.47
2023-04-01T18:27:43.481Z,5.13
2023-04-01T18:30:39.756Z,5.13
2023-04-01T18:33:30.001Z,5.20
2023-04-01T18:36:53.678Z,4.90
2023-04-01T18:39:49.266Z,4.27
2023-04-01T18:45:51.229Z,6.33
2023-04-01T18:49:39.679Z,3.13
2023-04-01T18:53:42.040Z,2.40
2023-04-01T18:56:25.851Z,1.90
2023-04-01T19:05:20.324Z,2.47
2023-04-01T19:07:53.841Z,1.40
2023-04-01T19:11:49.923Z,0.93
2023-04-01T19:18:18.076Z,1.30
2023-04-01T19:21:00.137Z,1.20
2023-04-01T19:24:36.890Z,1.10
2023-04-01T19:27:50.027Z,0.90
2023-04-01T19:30:56.635Z,0.90
2023-04-01T19:34:04.054Z,1.70
2023-04-01T19:37:11.969Z,1.50
2023-04-01T19:46:22.526Z,1.30
2023-04-01T19:50:49.635Z,1.57
2023-04-01T19:55:33.689Z,1.10
2023-04-01T20:00:44.674Z,1.13
2023-04-01T20:05:41.224Z,1.63
2023-04-01T20:10:10.352Z,3.93
2023-04-01T20:14:44.883Z,3.17
2023-04-01T20:18:25.523Z,3.00
2023-04-01T20:21:02.594Z,4.57
2023-04-01T20:23:50.216Z,4.70
2023-04-01T20:26:26.086Z,3.97
2023-04-01T20:29:59.361Z,3.43
2023-04-01T20:38:55.725Z,2.97
2023-04-01T20:47:24.622Z,5.10
2023-04-01T20:50:40.846Z,4.10
2023-04-01T20:56:26.976Z,3.77
2023-04-01T21:00:10.348Z,4.70
2023-04-01T21:05:52.924Z,3.57
2023-04-01T21:10:52.372Z,2.83
2023-04-01T21:14:26.703Z,2.53
2023-04-01T21:20:28.448Z,2.60
2023-04-01T21:25:36.902Z,2.50
2023-04-01T21:28:45.373Z,2.67
2023-04-01T21:34:56.510Z,4.10
2023-04-01T21:40:21.482Z,1.70
2023-04-01T21:44:22.604Z,1.70
2023-04-01T21:48:58.920Z,2.03
2023-04-01T21:52:24.099Z,1.60
2023-04-01T21:58:37.581Z,2.10
2023-04-01T22:01:57.784Z,1.63
2023-04-01T22:05:00.129Z,1.37
2023-04-01T22:10:38.630Z,1.10
2023-04-01T22:16:48.735Z,1.30
2023-04-01T22:21:08.556Z,1.23
2023-04-01T22:24:32.882Z,1.60
2023-04-01T22:27:25.254Z,1.90
2023-04-01T22:31:12.875Z,1.87
2023-04-01T22:37:14.556Z,1.90
2023-04-01T22:40:21.646Z,1.43
2023-04-01T22:43:06.526Z,1.70
2023-04-01T22:50:52.215Z,1.70
2023-04-01T22:54:32.038Z,1.80
2023-04-01T22:57:57.354Z,1.80
2023-04-01T23:00:50.593Z,2.10
2023-04-01T23:03:32.434Z,1.87
2023-04-01T23:06:02.629Z,2.00
2023-04-01T23:12:03.888Z,1.60
2023-04-01T23:15:01.345Z,1.70
2023-04-01T23:19:05.415Z,1.80
2023-04-01T23:21:45.448Z,1.60
2023-04-01T23:24:36.847Z,1.87
2023-04-01T23:27:17.942Z,1.70
2023-04-01T23:29:44.524Z,1.60
2023-04-01T23:32:22.561Z,1.60
2023-04-01T23:34:57.208Z,1.37
2023-04-01T23:37:25.272Z,1.40
2023-04-01T23:39:58.517Z,1.60
2023-04-01T23:42:40.678Z,1.67
2023-04-01T23:45:20.129Z,1.63
2023-04-01T23:47:50.616Z,1.67
2023-04-01T23:50:25.878Z,1.83
2023-04-01T23:53:11.363Z,1.77
2023-04-01T23:55:42.398Z,1.50
2023-04-01T23:58:56.482Z,1.90
